航空気象通報

ウインドサーファーのための航空気象通報による風予報です。

1/13-1/15の航空気象通報

2019年01月14日 00時22分54秒 | お天気
羽田空港
TAF RJTT 131105Z 1312/1418 36010KT 9999 FEW030 SCT060
日本時間13日21時-15日03時:360度から10ノットの風


静岡空港
TAF RJNS 131105Z 1312/1418 35004KT 9999 FEW030 BKN040
BECMG 1400/1403 20008KT
BECMG 1409/1412 35004KT
日本時間13日21時-14日09時:350度から4ノットの風
09-12時:風が変化
12-18時:200度から8ノットの風
18-21時:風が変化
21時-15日03時:350度から4ノットの風


福岡空港
TAF RJFF 131105Z 1312/1418 14004KT 9000 FEW030 SCT040
TEMPO 1317/1320 4000 -SHRA BR
BECMG 1400/1403 34005KT
BECMG 1409/1412 14005KT
日本時間13日21時-14日09時:140度から4ノットの風
09-12時:風が変化
12-18時:340度から5ノットの風
18-21時:風が変化
21時-15日03時:140度から5ノットの風

但し、14日02-05時の間:時々

那覇空港
TAF ROAH 131105Z 1312/1418 03006KT 9999 FEW030 BKN045
日本時間13日21時-15日03時:030度から6ノットの風


石垣空港
TAF ROIG 131107Z 1312/1418 03010KT 9999 FEW025 BKN035
日本時間13日21時-15日03時:030度から10ノットの風


マウイのカフルイ空港
PHOG 131137Z 1312/1412 13005KT P6SM BKN050
FM132000 08010G20KT P6SM FEW035 BKN050
FM140700 13005KT P6SM SCT050 AMD LTD TO VIS AND WIND TIL 131600
ハワイ時間13日02-10時:130度から5ノットの風
10-21時:080度から10ノット、突風20ノット

21時-14日02時:130度から5ノットの風


サイパン空港
PGSN 131130Z 1312/1412 04013KT P6SM SCT025
マリアナ時間13日22時-14日22時:040度から13ノットの風
ジャンル:
お天気
コメント   この記事についてブログを書く
« 1/12-1/14の航空気象通報 | トップ | 1/14-1/16の航空気象通報 »
最近の画像もっと見る

コメントを投稿

ブログ作成者から承認されるまでコメントは反映されません。

お天気」カテゴリの最新記事